METAR Data
IDs: Format: Raw Decoded Include TAF

Data at: 0658 UTC 23 Feb 2019

PASM 230631Z AUTO 15020G26KT 10SM SCT017 BKN025 OVC036 M01/M03 A3003 RMK AO2 PK WND 16029/0619 FZRANO
PASM 230619Z AUTO 15020G29KT 10SM FEW022 SCT030 OVC036 M01/M03 A3003 RMK AO2 PK WND 16029/0619 FZRANO
PASM 230611Z AUTO 16021G28KT 10SM BKN029 OVC035 M01/M03 A3003 RMK AO2 PK WND 16028/0605 FZRANO
PASM 230602Z AUTO 15021G32KT 10SM OVC033 M01/M03 A3003 RMK AO2 PK WND 16032/0558 SLP186 60000 T10061033 10006 21006 58003 FZRANO
PASM 230519Z AUTO 15022G31KT 10SM SCT025 OVC036 M01/M03 A3003 RMK AO2 PK WND 16031/0513 FZRANO
PASM 230502Z AUTO 15020G30KT 10SM BKN025 OVC032 M01/M03 A3003 RMK AO2 PK WND 15030/0500 SLP185 T10061028 FZRANO
PASM 230421Z AUTO 15018G28KT 10SM BKN025 OVC031 M01/M03 A3004 RMK AO2 PK WND 15028/0416 FZRANO
PASM 230402Z AUTO 15018G26KT 10SM OVC031 M01/M02 A3003 RMK AO2 PK WND 15028/0339 SLP186 T10061022 FZRANO
PASM 230354Z AUTO 15020G27KT 10SM FEW017 OVC031 M01/M02 A3003 RMK AO2 PK WND 15028/0339 FZRANO
PASM 230302Z AUTO 16018G27KT 10SM OVC015 00/M02 A3004 RMK AO2 PK WND 16032/0215 UPE0232 SLP189 P0000 60001 T00001022 53003 FZRANO
PASM 230257Z AUTO 16021G27KT 10SM OVC015 00/M02 A3003 RMK AO2 PK WND 16032/0215 UPE32 P0000 FZRANO
PASM 230202Z AUTO 16021G31KT 8SM UP BKN011 OVC026 00/M02 A3002 RMK AO2 PK WND 16032/0108 SLP182 P0000 T00001017 FZRANO
PASM 230143Z AUTO 16020G30KT 6SM UP BR OVC011 00/M02 A3002 RMK AO2 PK WND 16032/0108 CIG 009V014 P0000 FZRANO
PASM 230102Z AUTO 16020G28KT 8SM UP OVC009 00/M02 A3002 RMK AO2 PK WND 15034/0031 UPE0025B0047RAB0040E0047 CIG 008V014 SLP183 P0000 T00001017 FZRANO
PASM 230002Z AUTO 16019G34KT 5SM UP BR OVC007 01/M01 A3002 RMK AO2 PK WND 16034/2359 UPB2308SNE2308 CIG 006V012 SLP185 P0000 60002 T00061011 10006 21011 53002 FZRANO
PASM 222336Z AUTO 16022G31KT 5SM UP BR OVC007 00/M01 A3002 RMK AO2 PK WND 16032/2306 UPB08SNE08 CIG 005V011 P0000 FZRANO
PASM 222301Z AUTO 16020G27KT 3SM -SN BR OVC005 M01/M01 A3003 RMK AO2 PK WND 17030/2231 SLP188 P0000 T10061011 FZRANO
PASM 222300Z AUTO 16020G27KT 3SM -SN BR OVC005 M01/M01 A3003 RMK AO2 PK WND 17030/2231 P0000 FZRANO
PASM 222245Z AUTO 16018G28KT 1 1/4SM -SN BR OVC005 M01/M01 A3003 RMK AO2 PK WND 17030/2231 CIG 004V008 P0000 FZRANO
PASM 222236Z AUTO 16019G30KT 3/4SM -SN BR OVC005 M01/M01 A3003 RMK AO2 PK WND 17030/2231 CIG 004V008 P0000 FZRANO
PASM 222202Z AUTO 16019G30KT 1SM -SN BR OVC005 M01/M01 A3003 RMK AO2 PK WND 16032/2145 SLP188 P0001 T10061011 FZRANO
PASM 222145Z AUTO 16021G32KT 1SM -SN BR OVC005 M01/M01 A3003 RMK AO2 PK WND 16032/2145 P0000 FZRANO
PASM 222125Z AUTO 16019G30KT 1SM -SN BR OVC005 M01/M01 A3002 RMK AO2 PK WND 16030/2120 P0000 FZRANO
PASM 222110Z AUTO 16020G28KT 1 1/4SM -SN BR OVC005 M01/M01 A3003 RMK AO2 PK WND 16027/2106 CIG 003V008 P0000 FZRANO
PASM 222102Z AUTO 16019G28KT 3/4SM -SN BR OVC005 M01/M01 A3003 RMK AO2 PK WND 16032/2050 CIG 003V008 SLP186 P0000 60001 T10061011 51004 FZRANO
PASM 222057Z AUTO 16019G32KT 3/4SM -SN BR OVC005 M01/M01 A3003 RMK AO2 PK WND 16032/2050 CIG 003V008 P0000 FZRANO
PASM 222045Z AUTO 16021G29KT 1SM -SN BR OVC005 M01/M01 A3002 RMK AO2 PK WND 15032/2007 P0000 FZRANO
PASM 222038Z AUTO 16022G29KT 3/4SM -SN BR OVC005 M01/M01 A3003 RMK AO2 PK WND 15032/2007 P0000 FZRANO
PASM 222028Z AUTO 16020G30KT 1/2SM -SN FZFG OVC005 M01/M01 A3003 RMK AO2 PK WND 15032/2007 P0000 FZRANO
PASM 222002Z AUTO 15022G28KT 3/4SM -SN BR OVC005 M01/M01 A3002 RMK AO2 PK WND 16029/1935 CIG 003V009 SLP185 P0001 T10111011 FZRANO
PASM 222000Z AUTO 15019G28KT 3/4SM -SN BR OVC005 M01/M01 A3003 RMK AO2 PK WND 16029/1935 P0001 FZRANO
PASM 221932Z AUTO 16016G25KT 1/2SM -SN FZFG OVC005 M01/M01 A3002 RMK AO2 PK WND 16027/1915 P0000 FZRANO
PASM 221911Z AUTO 16019G26KT 3/4SM -SN BR OVC005 M01/M02 A3002 RMK AO2 PK WND 15026/1908 CIG 003V007 P0000 FZRANO
PASM 221902Z AUTO 15018G27KT 1/2SM -SN FZFG OVC005 M01/M02 A3002 RMK AO2 PK WND 16027/1854 CIG 003V007 SLP182 P0000 T10111017 FZRANO
PASM 221857Z AUTO 16019G27KT 1/2SM -SN FZFG OVC005 M01/M02 A3002 RMK AO2 PK WND 16027/1854 P0000 FZRANO
PASM 221812Z AUTO 16015G23KT 3/4SM -SN BR OVC005 M01/M02 A3002 RMK AO2 CIG 004V009 P0000 FZRANO
PASM 221802Z AUTO 16017G25KT 1 1/4SM -SN BR OVC005 M01/M02 A3002 RMK AO2 PK WND 16028/1752 SLP185 P0000 60000 T10111017 11011 21017 56006 FZRANO
PASM 221734Z AUTO 15019G27KT 1 1/4SM -SN BR OVC005 M01/M02 A3002 RMK AO2 PK WND 15028/1708 CIG 003V008 P0000 FZRANO
PASM 221718Z AUTO 15016G23KT 1SM -SN BR OVC005 M01/M02 A3002 RMK AO2 PK WND 15028/1708 P0000 FZRANO
PASM 221702Z AUTO 16019G27KT 1 1/4SM -SN BR OVC005 M01/M02 A3002 RMK AO2 PK WND 15027/1658 P0000 FZRANO
PASM 221649Z AUTO 16016G27KT 1SM -SN BR OVC005 M01/M02 A3002 RMK AO2 PK WND 15027/1644 P0000 FZRANO
PASM 221602Z AUTO 15016G25KT 1 1/4SM -SN BR OVC005 M01/M02 A3003 RMK AO2 PK WND 16028/1518 SLP188 P0000 T10111017 FZRANO
PASM 221546Z AUTO 16017G26KT 1 1/2SM -SN BR OVC005 M01/M02 A3004 RMK AO2 PK WND 16028/1518 P0000 FZRANO
PASM 221534Z AUTO 16015G26KT 2SM -SN BR OVC005 M02/M02 A3004 RMK AO2 PK WND 16028/1518 P0000 FZRANO
PASM 221502Z AUTO 16017G25KT 1 1/4SM -SN BR OVC005 M02/M02 A3005 RMK AO2 PK WND 15026/1446 P0000 FZRANO
PASM 221455Z AUTO 16016G26KT 1SM -SN BR OVC005 M02/M02 A3005 RMK AO2 PK WND 15026/1446 P0000 FZRANO
PASM 221445Z AUTO 16014G23KT 3/4SM -SN BR OVC005 M02/M02 A3005 RMK AO2 PK WND 16026/1414 P0000 FZRANO
PASM 221438Z AUTO 16017G23KT 1SM -SN BR OVC005 M02/M02 A3005 RMK AO2 PK WND 16026/1414 P0000 FZRANO
PASM 221402Z AUTO 16016G27KT 1 1/2SM -SN BR OVC005 M02/M02 A3005 RMK AO2 PK WND 15027/1359 SLP196 P0000 T10171022 FZRANO
PASM 221316Z AUTO 16017G26KT 1 1/2SM -SN BR OVC005 M02/M02 A3007 RMK AO2 VIS 1V2 1/2 CIG 004V008 P0000 FZRANO
PASM 221308Z AUTO 15020G26KT 2 1/2SM -SN BR OVC005 M02/M02 A3006 RMK AO2 PK WND 15026/1308 SLP198 P0000 T10171022 FZRANO
PASM 221302Z AUTO 15016G23KT 2 1/2SM -SN BR OVC005 M02/M02 A3006 RMK AO2 CIG 004V008 P0000 FZRANO
PASM 221208Z AUTO 15015G20KT 4SM -SN BR OVC005 M02/M02 A3007 RMK AO2 SLP202 P0000 60000 T10171022 11017 21033 56006 FZRANO
PASM 221202Z AUTO 14013G22KT 3SM -SN BR OVC005 M02/M02 A3007 RMK AO2 P0000 FZRANO
PASM 221137Z AUTO 15015G25KT 2 1/2SM -SN BR OVC005 M02/M02 A3007 RMK AO2 P0000 FZRANO
PASM 221119Z AUTO 15011G19KT 3SM -SN BR OVC005 M02/M02 A3008 RMK AO2 P0000 FZRANO
PASM 221102Z AUTO 15016G22KT 2SM -SN BR OVC005 M02/M02 A3008 RMK AO2 SLP204 P0000 T10221022 FZRANO
PASM 221055Z AUTO 15013G19KT 2 1/2SM -SN BR OVC005 M02/M03 A3008 RMK AO2 VIS 2V3 P0000 FZRANO
PASM 221002Z AUTO 16013G21KT 5SM -SN BR OVC005 M02/M03 A3008 RMK AO2 SLP205 P0000 T10221028 FZRANO
PASM 220902Z AUTO 16015G18KT 3SM -SN BR OVC005 M03/M03 A3009 RMK AO2 SLP208 P0000 60000 T10281033 51001 FZRANO
PASM 220811Z AUTO 15010KT 3SM -SN BR BKN005 OVC013 M03/M04 A3010 RMK AO2 CIG 005V010 P0000 FZRANO
PASM 220802Z AUTO 14009KT 2 1/2SM -SN BR BKN007 OVC013 M03/M04 A3010 RMK AO2 CIG 005V010 SLP210 P0000 T10331039 410331033 FZRANO
PASM 220748Z AUTO 14008KT 2SM -SN BR FEW007 BKN013 OVC018 M03/M04 A3010 RMK AO2 P0000 FZRANO
PASM 220739Z AUTO 14008KT 2SM -SN BR SCT007 OVC017 M03/M04 A3009 RMK AO2 VIS 1 1/2V2 1/2 P0000 FZRANO
PASM 220727Z AUTO 15010KT 4SM -SN BR SCT007 OVC019 M04/M04 A3010 RMK AO2 P0000 FZRANO
PASM 220718Z AUTO 15011KT 3SM -SN BR BKN007 OVC023 M04/M04 A3010 RMK AO2 P0000 FZRANO
PASM 220702Z AUTO 16010KT 3SM -SN BR FEW007 BKN026 OVC030 M04/M04 A3010 RMK AO2 P0000 FZRANO
PASM 220653Z AUTO 16009KT 4SM -SN BR FEW007 OVC030 M04/M04 A3010 RMK AO2 SNB0523 SLP209 P0000 60000 T10391044 11039 21056 50004 FZRANO
PASM 220633Z AUTO 16010KT 4SM -SN BR FEW008 BKN031 OVC070 M04/M05 A3009 RMK AO2 SNB0523 P0000 FZRANO
PASM 220602Z AUTO 17009KT 7SM -SN FEW014 BKN038 OVC075 M04/M05 A3010 RMK AO2 SNB0523 P0000 FZRANO
PASM 220555Z AUTO 17009KT 5SM -SN BR SCT014 BKN025 OVC075 M04/M05 A3010 RMK AO2 SNB23 P0000 FZRANO
PASM 220502Z AUTO 16009KT 10SM OVC040 M04/M06 A3010 RMK AO2 SLP212 T10441061 FZRANO
PASM 220402Z AUTO 18009KT 10SM SCT042 M06/M07 A3010 RMK AO2 SLP212 T10561072 FZRANO
PASM 220302Z AUTO 18010KT 10SM BKN036 M04/M07 A3011 RMK AO2 SLP212 60000 T10441067 51014 FZRANO
PASM 220202Z AUTO 20012KT 10SM CLR M04/M06 A3009 RMK AO2 SLP208 T10391061 FZRANO
PASM 220102Z AUTO 21014KT 10SM OVC041 M03/M05 A3008 RMK AO2 SLP204 T10281050 FZRANO
PASM 220002Z AUTO 22015KT 10SM OVC041 M03/M05 A3006 RMK AO2 SNE2312 SLP199 P0000 60000 T10281050 11022 21033 51012 FZRANO
PASM 212302Z AUTO 22015KT 10SM -SN OVC037 M03/M05 A3005 RMK AO2 SNE2219B02 SLP194 P0000 T10281050 FZRANO
PASM 212222Z AUTO 21013KT 7SM FEW016 SCT028 OVC037 M03/M04 A3004 RMK AO2 SNE19 P0000 FZRANO
PASM 212213Z AUTO 22012KT 7SM -SN FEW016 BKN029 OVC034 M03/M04 A3004 RMK AO2 SNB2148 SLP190 P0000 T10281044 FZRANO
PASM 212202Z AUTO 21011KT 7SM -SN FEW016 BKN029 OVC034 M03/M04 A3004 RMK AO2 SNB2148 P0000 FZRANO
PASM 212152Z AUTO 22015KT 5SM -SN BR FEW014 BKN030 OVC034 M03/M05 A3003 RMK AO2 SNB48 P0000 FZRANO
PASM 212129Z AUTO 23019KT 10SM BKN028 M03/M05 A3002 RMK AO2 FZRANO
PASM 212102Z AUTO 23018KT 9SM FEW014 BKN030 M03/M05 A3001 RMK AO2 SNE2017 SLP181 P0000 60000 T10331050 51018 FZRANO
PASM 212048Z AUTO 23018KT 8SM SCT014 SCT022 OVC030 M03/M05 A3001 RMK AO2 SNE17 P0000 FZRANO
PASM 212009Z AUTO 22022KT 5SM -SN BR BKN019 OVC024 M03/M04 A2999 RMK AO2 P0000 FZRANO
PASM 212002Z AUTO 22021KT 2SM -SN BR BKN019 OVC024 M03/M04 A2998 RMK AO2 VIS 3/4V5 P0000 FZRANO
PASM 211931Z AUTO 22018KT 3SM -SN BR SCT017 BKN026 OVC050 M03/M04 A2996 RMK AO2 P0000 FZRANO
PASM 211923Z AUTO 22017KT 1 3/4SM -SN BR FEW017 BKN029 OVC048 M03/M04 A2996 RMK AO2 P0000 FZRANO
PASM 211914Z AUTO 21016KT 8SM -SN BKN029 OVC048 M03/M04 A2996 RMK AO2 P0000 FZRANO
PASM 211902Z AUTO 20014KT 8SM -SN BKN031 BKN037 OVC046 M04/M05 A2996 RMK AO2 SNE1823B1842 SLP162 P0000 T10391050 FZRANO